sensor_id;sensor_type;location;lat;lon;timestamp;pressure;altitude;pressure_sealevel;temperature;humidity
55191;BME280;41070;50.360;18.742;2023-08-01T00:04:27;97918.13;;;19.38;70.56
55191;BME280;41070;50.360;18.742;2023-08-01T00:07:35;97915.70;;;19.36;70.47
55191;BME280;41070;50.360;18.742;2023-08-01T00:19:03;97912.52;;;19.20;70.31
55191;BME280;41070;50.360;18.742;2023-08-01T00:22:00;97908.54;;;19.18;70.27
55191;BME280;41070;50.360;18.742;2023-08-01T00:24:50;97905.61;;;19.12;70.43
55191;BME280;41070;50.360;18.742;2023-08-01T00:27:38;97900.95;;;19.13;70.61
55191;BME280;41070;50.360;18.742;2023-08-01T00:33:46;97891.13;;;19.08;70.65
55191;BME280;41070;50.360;18.742;2023-08-01T00:36:54;97887.78;;;19.13;70.76
55191;BME280;41070;50.360;18.742;2023-08-01T00:39:42;97882.48;;;19.15;70.61
55191;BME280;41070;50.360;18.742;2023-08-01T00:42:46;97878.74;;;19.16;70.52
55191;BME280;41070;50.360;18.742;2023-08-01T00:45:58;97871.90;;;19.13;70.72
55191;BME280;41070;50.360;18.742;2023-08-01T00:48:44;97872.61;;;19.12;70.68
55191;BME280;41070;50.360;18.742;2023-08-01T00:51:48;97861.39;;;19.12;70.78
55191;BME280;41070;50.360;18.742;2023-08-01T00:54:56;97857.90;;;19.12;70.65
55191;BME280;41070;50.360;18.742;2023-08-01T01:00:48;97838.02;;;19.15;70.60
55191;BME280;41070;50.360;18.742;2023-08-01T01:07:00;97828.96;;;19.18;70.52
55191;BME280;41070;50.360;18.742;2023-08-01T01:10:07;97820.20;;;19.19;70.56
55191;BME280;41070;50.360;18.742;2023-08-01T01:13:15;97814.61;;;19.16;70.56
55191;BME280;41070;50.360;18.742;2023-08-01T01:18:49;97798.84;;;19.02;70.81
55191;BME280;41070;50.360;18.742;2023-08-01T01:21:57;97796.28;;;18.99;70.86
55191;BME280;41070;50.360;18.742;2023-08-01T01:25:14;97792.02;;;18.98;70.87
55191;BME280;41070;50.360;18.742;2023-08-01T01:28:21;97791.46;;;19.00;70.82
55191;BME280;41070;50.360;18.742;2023-08-01T01:31:30;97785.00;;;19.01;70.81
55191;BME280;41070;50.360;18.742;2023-08-01T01:34:18;97784.23;;;19.00;70.74
55191;BME280;41070;50.360;18.742;2023-08-01T01:37:26;97774.58;;;18.95;70.83
55191;BME280;41070;50.360;18.742;2023-08-01T01:40:14;97768.21;;;18.88;70.76
55191;BME280;41070;50.360;18.742;2023-08-01T01:46:14;97759.91;;;18.75;70.90
55191;BME280;41070;50.360;18.742;2023-08-01T01:52:09;97753.92;;;18.73;70.82
55191;BME280;41070;50.360;18.742;2023-08-01T01:54:55;97753.63;;;18.77;70.95
55191;BME280;41070;50.360;18.742;2023-08-01T01:57:46;97747.16;;;18.81;70.77
55191;BME280;41070;50.360;18.742;2023-08-01T02:00:41;97747.79;;;18.80;70.70
55191;BME280;41070;50.360;18.742;2023-08-01T02:03:50;97742.76;;;18.79;70.71
55191;BME280;41070;50.360;18.742;2023-08-01T02:06:37;97741.21;;;18.78;70.60
55191;BME280;41070;50.360;18.742;2023-08-01T02:09:31;97734.35;;;18.76;70.67
55191;BME280;41070;50.360;18.742;2023-08-01T02:15:40;97727.67;;;18.73;70.64
55191;BME280;41070;50.360;18.742;2023-08-01T02:18:37;97726.46;;;18.69;70.61
55191;BME280;41070;50.360;18.742;2023-08-01T02:21:30;97725.13;;;18.65;70.77
55191;BME280;41070;50.360;18.742;2023-08-01T02:24:36;97714.90;;;18.62;70.99
55191;BME280;41070;50.360;18.742;2023-08-01T02:27:24;97712.76;;;18.61;71.15
55191;BME280;41070;50.360;18.742;2023-08-01T02:30:34;97711.71;;;18.63;70.98
55191;BME280;41070;50.360;18.742;2023-08-01T02:35:58;97701.73;;;18.62;71.03
55191;BME280;41070;50.360;18.742;2023-08-01T02:39:07;97698.81;;;18.58;70.74
55191;BME280;41070;50.360;18.742;2023-08-01T02:44:47;97698.42;;;18.53;70.87
55191;BME280;41070;50.360;18.742;2023-08-01T02:47:46;97695.56;;;18.52;70.77
55191;BME280;41070;50.360;18.742;2023-08-01T02:53:34;97690.26;;;18.48;70.89
55191;BME280;41070;50.360;18.742;2023-08-01T02:56:32;97687.70;;;18.43;70.83
55191;BME280;41070;50.360;18.742;2023-08-01T03:02:32;97681.89;;;18.48;70.73
55191;BME280;41070;50.360;18.742;2023-08-01T03:05:40;97678.98;;;18.51;70.80
55191;BME280;41070;50.360;18.742;2023-08-01T03:08:48;97676.30;;;18.53;70.85
55191;BME280;41070;50.360;18.742;2023-08-01T03:12:17;97672.95;;;18.54;70.86
55191;BME280;41070;50.360;18.742;2023-08-01T03:15:06;97671.64;;;18.54;70.63
55191;BME280;41070;50.360;18.742;2023-08-01T03:18:16;97667.27;;;18.59;70.53
55191;BME280;41070;50.360;18.742;2023-08-01T03:21:03;97669.01;;;18.62;70.33
55191;BME280;41070;50.360;18.742;2023-08-01T03:23:42;97664.73;;;18.63;70.23
55191;BME280;41070;50.360;18.742;2023-08-01T03:27:05;97661.21;;;18.68;70.38
55191;BME280;41070;50.360;18.742;2023-08-01T03:30:03;97663.65;;;18.77;70.31
55191;BME280;41070;50.360;18.742;2023-08-01T03:36:21;97668.44;;;18.80;69.83
55191;BME280;41070;50.360;18.742;2023-08-01T03:39:11;97667.13;;;18.78;69.67
55191;BME280;41070;50.360;18.742;2023-08-01T03:41:55;97663.55;;;18.74;69.59
55191;BME280;41070;50.360;18.742;2023-08-01T03:44:53;97662.93;;;18.71;69.42
55191;BME280;41070;50.360;18.742;2023-08-01T03:48:12;97659.84;;;18.67;69.32
55191;BME280;41070;50.360;18.742;2023-08-01T03:50:50;97659.13;;;18.68;69.15
55191;BME280;41070;50.360;18.742;2023-08-01T03:53:52;97661.52;;;18.64;69.18
55191;BME280;41070;50.360;18.742;2023-08-01T03:56:44;97656.48;;;18.64;69.23
55191;BME280;41070;50.360;18.742;2023-08-01T03:59:53;97651.06;;;18.64;69.36
55191;BME280;41070;50.360;18.742;2023-08-01T04:02:41;97644.93;;;18.62;69.14
55191;BME280;41070;50.360;18.742;2023-08-01T04:05:50;97649.80;;;18.62;69.18
55191;BME280;41070;50.360;18.742;2023-08-01T04:08:58;97650.14;;;18.64;69.13
55191;BME280;41070;50.360;18.742;2023-08-01T04:11:55;97651.91;;;18.68;69.07
55191;BME280;41070;50.360;18.742;2023-08-01T04:14:24;97645.46;;;18.74;68.89
55191;BME280;41070;50.360;18.742;2023-08-01T04:17:20;97644.15;;;18.78;68.73
55191;BME280;41070;50.360;18.742;2023-08-01T04:20:22;97642.39;;;18.88;68.77
55191;BME280;41070;50.360;18.742;2023-08-01T04:31:51;97631.49;;;19.29;68.44
55191;BME280;41070;50.360;18.742;2023-08-01T04:35:21;97622.68;;;19.35;67.76
55191;BME280;41070;50.360;18.742;2023-08-01T04:37:53;97624.63;;;19.41;67.73
55191;BME280;41070;50.360;18.742;2023-08-01T04:40:44;97623.34;;;19.46;67.53
55191;BME280;41070;50.360;18.742;2023-08-01T04:43:33;97631.29;;;19.50;67.44
55191;BME280;41070;50.360;18.742;2023-08-01T04:46:41;97635.66;;;19.52;67.34
55191;BME280;41070;50.360;18.742;2023-08-01T04:51:55;97639.39;;;19.55;67.12
55191;BME280;41070;50.360;18.742;2023-08-01T04:54:27;97636.94;;;19.55;67.19
55191;BME280;41070;50.360;18.742;2023-08-01T05:00:25;97638.83;;;19.56;67.26
55191;BME280;41070;50.360;18.742;2023-08-01T05:06:21;97630.36;;;19.60;67.31
55191;BME280;41070;50.360;18.742;2023-08-01T05:09:29;97630.82;;;19.60;67.26
55191;BME280;41070;50.360;18.742;2023-08-01T05:12:38;97630.15;;;19.62;67.34
55191;BME280;41070;50.360;18.742;2023-08-01T05:15:10;97631.71;;;19.65;67.33
55191;BME280;41070;50.360;18.742;2023-08-01T05:18:34;97631.02;;;19.64;67.37
55191;BME280;41070;50.360;18.742;2023-08-01T05:21:38;97630.75;;;19.69;67.56
55191;BME280;41070;50.360;18.742;2023-08-01T05:27:30;97633.83;;;19.81;67.53
55191;BME280;41070;50.360;18.742;2023-08-01T05:33:46;97640.70;;;19.97;67.69
55191;BME280;41070;50.360;18.742;2023-08-01T05:36:23;97642.27;;;20.11;67.87
55191;BME280;41070;50.360;18.742;2023-08-01T05:39:32;97642.98;;;20.22;67.50
55191;BME280;41070;50.360;18.742;2023-08-01T05:42:09;97642.21;;;20.33;67.54
55191;BME280;41070;50.360;18.742;2023-08-01T05:44:51;97645.81;;;20.40;67.62
55191;BME280;41070;50.360;18.742;2023-08-01T06:02:56;97623.98;;;20.39;68.63
55191;BME280;41070;50.360;18.742;2023-08-01T06:05:49;97627.29;;;20.32;69.17
55191;BME280;41070;50.360;18.742;2023-08-01T06:11:55;97615.76;;;20.27;69.91
55191;BME280;41070;50.360;18.742;2023-08-01T06:14:43;97613.60;;;20.33;70.37
55191;BME280;41070;50.360;18.742;2023-08-01T06:20:58;97605.92;;;20.49;70.21
55191;BME280;41070;50.360;18.742;2023-08-01T06:27:10;97598.12;;;20.82;70.31
55191;BME280;41070;50.360;18.742;2023-08-01T06:33:18;97591.40;;;21.04;69.61
55191;BME280;41070;50.360;18.742;2023-08-01T06:36:25;97601.70;;;21.11;69.62
55191;BME280;41070;50.360;18.742;2023-08-01T06:39:26;97603.56;;;21.25;69.62
55191;BME280;41070;50.360;18.742;2023-08-01T06:42:34;97603.15;;;21.38;68.99
55191;BME280;41070;50.360;18.742;2023-08-01T06:45:12;97598.50;;;21.48;68.87
55191;BME280;41070;50.360;18.742;2023-08-01T06:48:20;97596.09;;;21.56;68.78
55191;BME280;41070;50.360;18.742;2023-08-01T06:51:11;97597.77;;;21.59;68.82
55191;BME280;41070;50.360;18.742;2023-08-01T06:54:19;97599.05;;;21.65;68.58
55191;BME280;41070;50.360;18.742;2023-08-01T06:57:07;97592.19;;;21.65;68.54
55191;BME280;41070;50.360;18.742;2023-08-01T07:06:09;97585.37;;;21.48;68.99
55191;BME280;41070;50.360;18.742;2023-08-01T07:12:07;97585.23;;;21.69;69.31
55191;BME280;41070;50.360;18.742;2023-08-01T07:15:15;97587.80;;;21.89;69.34
55191;BME280;41070;50.360;18.742;2023-08-01T07:18:41;97581.42;;;22.07;69.17
55191;BME280;41070;50.360;18.742;2023-08-01T07:21:29;97573.05;;;22.17;69.35
55191;BME280;41070;50.360;18.742;2023-08-01T07:24:38;97574.70;;;22.23;69.25
55191;BME280;41070;50.360;18.742;2023-08-01T07:27:46;97574.58;;;22.31;69.08
55191;BME280;41070;50.360;18.742;2023-08-01T07:30:42;97577.31;;;22.37;68.65
55191;BME280;41070;50.360;18.742;2023-08-01T07:42:45;97585.66;;;21.99;70.58
55191;BME280;41070;50.360;18.742;2023-08-01T07:46:19;97592.41;;;21.83;70.60
55191;BME280;41070;50.360;18.742;2023-08-01T07:51:48;97591.44;;;21.50;72.52
55191;BME280;41070;50.360;18.742;2023-08-01T07:54:38;97591.98;;;21.50;73.45
55191;BME280;41070;50.360;18.742;2023-08-01T07:57:27;97584.86;;;21.61;74.78
55191;BME280;41070;50.360;18.742;2023-08-01T08:00:01;97584.27;;;21.74;75.28
55191;BME280;41070;50.360;18.742;2023-08-01T08:02:49;97586.94;;;21.87;75.16
55191;BME280;41070;50.360;18.742;2023-08-01T08:05:17;97589.20;;;21.98;75.79
55191;BME280;41070;50.360;18.742;2023-08-01T08:07:45;97585.94;;;22.11;76.44
55191;BME280;41070;50.360;18.742;2023-08-01T08:10:23;97585.47;;;22.25;76.43
55191;BME280;41070;50.360;18.742;2023-08-01T08:12:58;97579.17;;;22.34;76.42
55191;BME280;41070;50.360;18.742;2023-08-01T08:16:00;97576.71;;;22.39;76.40
55191;BME280;41070;50.360;18.742;2023-08-01T08:18:27;97573.55;;;22.42;76.91
55191;BME280;41070;50.360;18.742;2023-08-01T08:21:18;97575.10;;;22.36;76.71
55191;BME280;41070;50.360;18.742;2023-08-01T08:24:23;97570.83;;;22.30;76.85
55191;BME280;41070;50.360;18.742;2023-08-01T08:26:51;97567.48;;;22.25;76.92
55191;BME280;41070;50.360;18.742;2023-08-01T08:29:19;97565.58;;;22.21;77.41
55191;BME280;41070;50.360;18.742;2023-08-01T08:32:07;97562.52;;;22.22;78.90
55191;BME280;41070;50.360;18.742;2023-08-01T08:35:17;97556.64;;;22.21;79.37
55191;BME280;41070;50.360;18.742;2023-08-01T08:40:25;97559.80;;;22.27;78.73
55191;BME280;41070;50.360;18.742;2023-08-01T08:43:02;97555.95;;;22.36;79.22
55191;BME280;41070;50.360;18.742;2023-08-01T08:45:51;97562.01;;;22.45;79.06
55191;BME280;41070;50.360;18.742;2023-08-01T08:49:01;97564.95;;;22.54;79.46
55191;BME280;41070;50.360;18.742;2023-08-01T08:51:29;97556.24;;;22.61;79.76
55191;BME280;41070;50.360;18.742;2023-08-01T08:57:04;97551.09;;;22.62;79.52
55191;BME280;41070;50.360;18.742;2023-08-01T08:59:53;97545.38;;;22.64;79.53
55191;BME280;41070;50.360;18.742;2023-08-01T09:02:45;97544.33;;;22.70;79.77
55191;BME280;41070;50.360;18.742;2023-08-01T09:05:59;97541.91;;;22.70;79.69
55191;BME280;41070;50.360;18.742;2023-08-01T09:11:28;97535.05;;;22.77;79.75
55191;BME280;41070;50.360;18.742;2023-08-01T09:14:30;97527.77;;;22.79;79.41
55191;BME280;41070;50.360;18.742;2023-08-01T09:17:37;97528.08;;;22.73;79.19
55191;BME280;41070;50.360;18.742;2023-08-01T09:20:05;97518.31;;;22.70;79.62
55191;BME280;41070;50.360;18.742;2023-08-01T09:25:46;97513.52;;;22.69;79.57
55191;BME280;41070;50.360;18.742;2023-08-01T09:28:41;97510.23;;;22.66;79.46
55191;BME280;41070;50.360;18.742;2023-08-01T09:31:12;97511.63;;;22.70;79.87
55191;BME280;41070;50.360;18.742;2023-08-01T09:34:00;97509.39;;;22.73;79.95
55191;BME280;41070;50.360;18.742;2023-08-01T09:36:36;97506.95;;;22.76;80.17
55191;BME280;41070;50.360;18.742;2023-08-01T09:39:23;97507.36;;;22.79;80.05
55191;BME280;41070;50.360;18.742;2023-08-01T09:42:01;97506.18;;;22.83;80.02
55191;BME280;41070;50.360;18.742;2023-08-01T09:44:34;97496.27;;;22.89;80.36
55191;BME280;41070;50.360;18.742;2023-08-01T09:47:15;97491.79;;;22.94;80.35
55191;BME280;41070;50.360;18.742;2023-08-01T09:50:26;97489.15;;;22.96;80.07
55191;BME280;41070;50.360;18.742;2023-08-01T09:52:53;97486.30;;;22.93;80.15
55191;BME280;41070;50.360;18.742;2023-08-01T09:56:39;97486.17;;;22.91;80.16
55191;BME280;41070;50.360;18.742;2023-08-01T09:59:25;97481.27;;;22.83;80.12
55191;BME280;41070;50.360;18.742;2023-08-01T10:01:53;97477.48;;;22.76;80.35
55191;BME280;41070;50.360;18.742;2023-08-01T10:04:39;97466.31;;;22.71;80.54
55191;BME280;41070;50.360;18.742;2023-08-01T10:07:28;97467.56;;;22.63;80.57
55191;BME280;41070;50.360;18.742;2023-08-01T10:09:58;97465.54;;;22.50;80.20
55191;BME280;41070;50.360;18.742;2023-08-01T10:12:47;97466.17;;;22.36;80.50
55191;BME280;41070;50.360;18.742;2023-08-01T10:15:36;97459.52;;;22.28;80.86
55191;BME280;41070;50.360;18.742;2023-08-01T10:18:38;97458.80;;;22.19;80.46
55191;BME280;41070;50.360;18.742;2023-08-01T10:21:27;97455.22;;;22.07;80.92
55191;BME280;41070;50.360;18.742;2023-08-01T10:24:25;97456.16;;;22.02;81.43
55191;BME280;41070;50.360;18.742;2023-08-01T10:27:10;97456.69;;;21.99;82.05
55191;BME280;41070;50.360;18.742;2023-08-01T10:29:42;97452.74;;;21.96;81.98
55191;BME280;41070;50.360;18.742;2023-08-01T10:32:33;97454.27;;;22.00;82.23
55191;BME280;41070;50.360;18.742;2023-08-01T10:35:04;97456.34;;;22.06;82.62
55191;BME280;41070;50.360;18.742;2023-08-01T10:37:46;97459.77;;;22.10;82.49
55191;BME280;41070;50.360;18.742;2023-08-01T10:40:56;97463.02;;;22.08;82.87
55191;BME280;41070;50.360;18.742;2023-08-01T10:43:25;97464.44;;;22.06;82.44
55191;BME280;41070;50.360;18.742;2023-08-01T10:47:10;97472.59;;;21.96;81.66
55191;BME280;41070;50.360;18.742;2023-08-01T10:49:39;97482.48;;;21.76;80.98
55191;BME280;41070;50.360;18.742;2023-08-01T10:53:01;97482.77;;;21.57;81.17
55191;BME280;41070;50.360;18.742;2023-08-01T10:55:25;97486.92;;;21.46;81.64
55191;BME280;41070;50.360;18.742;2023-08-01T10:58:26;97480.66;;;21.38;81.63
55191;BME280;41070;50.360;18.742;2023-08-01T11:04:42;97480.13;;;21.40;82.80
55191;BME280;41070;50.360;18.742;2023-08-01T11:07:23;97478.92;;;21.47;82.81
55191;BME280;41070;50.360;18.742;2023-08-01T11:18:55;97481.16;;;21.04;82.31
55191;BME280;41070;50.360;18.742;2023-08-01T11:21:25;97477.98;;;21.00;82.72
55191;BME280;41070;50.360;18.742;2023-08-01T11:23:54;97478.64;;;20.96;83.13
55191;BME280;41070;50.360;18.742;2023-08-01T11:26:44;97482.66;;;20.94;83.34
55191;BME280;41070;50.360;18.742;2023-08-01T11:29:13;97476.73;;;20.93;83.39
55191;BME280;41070;50.360;18.742;2023-08-01T11:32:32;97472.10;;;20.92;83.93
55191;BME280;41070;50.360;18.742;2023-08-01T11:35:30;97463.45;;;20.90;83.96
55191;BME280;41070;50.360;18.742;2023-08-01T11:41:07;97463.52;;;20.74;83.94
55191;BME280;41070;50.360;18.742;2023-08-01T11:44:08;97464.41;;;20.72;84.62
55191;BME280;41070;50.360;18.742;2023-08-01T11:46:59;97463.50;;;20.72;84.84
55191;BME280;41070;50.360;18.742;2023-08-01T11:49:48;97462.85;;;20.75;84.57
55191;BME280;41070;50.360;18.742;2023-08-01T11:55:58;97453.79;;;20.89;84.71
55191;BME280;41070;50.360;18.742;2023-08-01T12:02:20;97454.27;;;21.03;85.15
55191;BME280;41070;50.360;18.742;2023-08-01T12:07:52;97451.00;;;21.14;85.38
55191;BME280;41070;50.360;18.742;2023-08-01T12:11:04;97443.48;;;21.16;85.02
55191;BME280;41070;50.360;18.742;2023-08-01T12:13:33;97444.20;;;21.18;85.16
55191;BME280;41070;50.360;18.742;2023-08-01T12:16:25;97440.86;;;21.17;84.68
55191;BME280;41070;50.360;18.742;2023-08-01T12:18:52;97438.30;;;21.20;85.27
55191;BME280;41070;50.360;18.742;2023-08-01T12:24:35;97434.74;;;21.28;84.82
55191;BME280;41070;50.360;18.742;2023-08-01T12:27:48;97435.18;;;21.27;84.51
55191;BME280;41070;50.360;18.742;2023-08-01T12:30:15;97434.25;;;21.27;84.90
55191;BME280;41070;50.360;18.742;2023-08-01T12:36:10;97440.29;;;21.28;85.37
55191;BME280;41070;50.360;18.742;2023-08-01T12:38:37;97440.89;;;21.38;84.79
55191;BME280;41070;50.360;18.742;2023-08-01T12:41:29;97444.41;;;21.37;84.62
55191;BME280;41070;50.360;18.742;2023-08-01T12:44:17;97444.48;;;21.39;85.07
55191;BME280;41070;50.360;18.742;2023-08-01T12:49:26;97448.69;;;21.55;85.02
55191;BME280;41070;50.360;18.742;2023-08-01T12:51:58;97451.27;;;21.54;84.99
55191;BME280;41070;50.360;18.742;2023-08-01T12:54:36;97454.50;;;21.53;84.51
55191;BME280;41070;50.360;18.742;2023-08-01T12:57:45;97450.83;;;21.47;84.87
55191;BME280;41070;50.360;18.742;2023-08-01T13:00:14;97450.91;;;21.37;84.64
55191;BME280;41070;50.360;18.742;2023-08-01T13:05:29;97444.79;;;21.19;84.70
55191;BME280;41070;50.360;18.742;2023-08-01T13:08:14;97443.64;;;21.12;84.77
55191;BME280;41070;50.360;18.742;2023-08-01T13:11:11;97438.22;;;20.99;85.27
55191;BME280;41070;50.360;18.742;2023-08-01T13:14:02;97441.55;;;20.95;85.87
55191;BME280;41070;50.360;18.742;2023-08-01T13:16:32;97439.69;;;20.88;85.45
55191;BME280;41070;50.360;18.742;2023-08-01T13:21:52;97428.92;;;20.75;86.11
55191;BME280;41070;50.360;18.742;2023-08-01T13:24:24;97423.38;;;20.66;86.12
55191;BME280;41070;50.360;18.742;2023-08-01T13:26:52;97419.66;;;20.53;85.85
55191;BME280;41070;50.360;18.742;2023-08-01T13:29:23;97413.98;;;20.46;86.48
55191;BME280;41070;50.360;18.742;2023-08-01T13:32:09;97414.95;;;20.45;86.84
55191;BME280;41070;50.360;18.742;2023-08-01T13:34:45;97411.49;;;20.46;87.18
55191;BME280;41070;50.360;18.742;2023-08-01T13:37:24;97407.36;;;20.49;87.31
55191;BME280;41070;50.360;18.742;2023-08-01T13:40:01;97397.20;;;20.51;87.07
55191;BME280;41070;50.360;18.742;2023-08-01T13:42:39;97393.41;;;20.48;87.01
55191;BME280;41070;50.360;18.742;2023-08-01T13:45:35;97388.80;;;20.49;87.27
55191;BME280;41070;50.360;18.742;2023-08-01T13:48:12;97381.45;;;20.54;87.41
55191;BME280;41070;50.360;18.742;2023-08-01T13:50:39;97373.78;;;20.51;87.05
55191;BME280;41070;50.360;18.742;2023-08-01T13:53:07;97371.48;;;20.50;87.30
55191;BME280;41070;50.360;18.742;2023-08-01T13:55:52;97367.34;;;20.53;87.36
55191;BME280;41070;50.360;18.742;2023-08-01T14:04:52;97366.27;;;20.67;87.61
55191;BME280;41070;50.360;18.742;2023-08-01T14:07:20;97359.64;;;20.69;87.28
55191;BME280;41070;50.360;18.742;2023-08-01T14:13:38;97360.98;;;20.80;87.79
55191;BME280;41070;50.360;18.742;2023-08-01T14:16:10;97362.52;;;20.92;87.71
55191;BME280;41070;50.360;18.742;2023-08-01T14:18:47;97365.45;;;20.99;87.58
55191;BME280;41070;50.360;18.742;2023-08-01T14:21:47;97374.40;;;20.94;87.13
55191;BME280;41070;50.360;18.742;2023-08-01T14:24:16;97382.99;;;20.88;87.51
55191;BME280;41070;50.360;18.742;2023-08-01T14:29:33;97375.52;;;20.81;87.60
55191;BME280;41070;50.360;18.742;2023-08-01T14:32:01;97378.00;;;20.79;87.25
55191;BME280;41070;50.360;18.742;2023-08-01T14:37:29;97381.86;;;20.68;86.96
55191;BME280;41070;50.360;18.742;2023-08-01T14:40:31;97375.84;;;20.64;87.33
55191;BME280;41070;50.360;18.742;2023-08-01T14:43:39;97377.84;;;20.58;87.10
55191;BME280;41070;50.360;18.742;2023-08-01T14:46:47;97374.65;;;20.53;87.36
55191;BME280;41070;50.360;18.742;2023-08-01T14:49:14;97373.70;;;20.41;87.56
55191;BME280;41070;50.360;18.742;2023-08-01T14:54:54;97398.99;;;20.26;87.77
55191;BME280;41070;50.360;18.742;2023-08-01T14:57:56;97399.63;;;20.18;87.46
55191;BME280;41070;50.360;18.742;2023-08-01T15:03:07;97405.23;;;20.05;88.30
55191;BME280;41070;50.360;18.742;2023-08-01T15:05:35;97404.34;;;20.01;88.09
55191;BME280;41070;50.360;18.742;2023-08-01T15:08:05;97403.05;;;19.95;88.75
55191;BME280;41070;50.360;18.742;2023-08-01T15:11:15;97403.30;;;19.88;88.30
55191;BME280;41070;50.360;18.742;2023-08-01T15:14:23;97397.23;;;19.76;88.23
55191;BME280;41070;50.360;18.742;2023-08-01T15:17:24;97391.12;;;19.66;88.63
55191;BME280;41070;50.360;18.742;2023-08-01T15:22:47;97392.19;;;19.51;89.16
55191;BME280;41070;50.360;18.742;2023-08-01T15:28:18;97398.77;;;19.51;89.22
55191;BME280;41070;50.360;18.742;2023-08-01T15:33:54;97400.04;;;19.44;89.59
55191;BME280;41070;50.360;18.742;2023-08-01T15:37:07;97401.13;;;19.41;89.38
55191;BME280;41070;50.360;18.742;2023-08-01T15:40:14;97406.45;;;19.37;89.64
55191;BME280;41070;50.360;18.742;2023-08-01T15:43:22;97413.46;;;19.29;89.39
55191;BME280;41070;50.360;18.742;2023-08-01T15:45:53;97417.01;;;19.21;89.20
55191;BME280;41070;50.360;18.742;2023-08-01T15:49:02;97417.41;;;19.18;89.40
55191;BME280;41070;50.360;18.742;2023-08-01T15:52:12;97419.16;;;19.16;89.70
55191;BME280;41070;50.360;18.742;2023-08-01T15:57:29;97423.31;;;19.18;89.91
55191;BME280;41070;50.360;18.742;2023-08-01T16:00:05;97421.61;;;19.15;89.63
55191;BME280;41070;50.360;18.742;2023-08-01T16:03:14;97425.57;;;19.11;90.10
55191;BME280;41070;50.360;18.742;2023-08-01T16:05:41;97430.29;;;19.11;90.27
55191;BME280;41070;50.360;18.742;2023-08-01T16:08:50;97429.47;;;19.09;89.80
55191;BME280;41070;50.360;18.742;2023-08-01T16:11:38;97436.34;;;19.04;89.68
55191;BME280;41070;50.360;18.742;2023-08-01T16:14:15;97439.17;;;19.00;89.81
55191;BME280;41070;50.360;18.742;2023-08-01T16:16:42;97436.47;;;18.93;89.48
55191;BME280;41070;50.360;18.742;2023-08-01T16:22:14;97437.79;;;18.84;89.77
55191;BME280;41070;50.360;18.742;2023-08-01T16:24:59;97430.54;;;18.79;89.86
55191;BME280;41070;50.360;18.742;2023-08-01T16:30:19;97439.53;;;18.74;90.39
55191;BME280;41070;50.360;18.742;2023-08-01T16:41:45;97437.95;;;18.66;90.40
55191;BME280;41070;50.360;18.742;2023-08-01T16:44:47;97441.12;;;18.63;90.57
55191;BME280;41070;50.360;18.742;2023-08-01T16:47:55;97447.98;;;18.65;90.51
55191;BME280;41070;50.360;18.742;2023-08-01T16:50:53;97449.33;;;18.63;90.50
55191;BME280;41070;50.360;18.742;2023-08-01T16:53:36;97456.63;;;18.59;90.31
55191;BME280;41070;50.360;18.742;2023-08-01T16:56:35;97459.19;;;18.55;90.64
55191;BME280;41070;50.360;18.742;2023-08-01T16:59:40;97460.58;;;18.51;90.43
55191;BME280;41070;50.360;18.742;2023-08-01T17:02:48;97459.35;;;18.44;90.80
55191;BME280;41070;50.360;18.742;2023-08-01T17:05:36;97464.36;;;18.42;91.02
55191;BME280;41070;50.360;18.742;2023-08-01T17:08:37;97455.66;;;18.37;91.24
55191;BME280;41070;50.360;18.742;2023-08-01T17:11:33;97445.89;;;18.38;91.65
55191;BME280;41070;50.360;18.742;2023-08-01T17:14:43;97438.45;;;18.38;91.61
55191;BME280;41070;50.360;18.742;2023-08-01T17:17:39;97437.88;;;18.36;91.31
55191;BME280;41070;50.360;18.742;2023-08-01T17:20:32;97438.89;;;18.32;91.56
55191;BME280;41070;50.360;18.742;2023-08-01T17:29:39;97437.56;;;18.29;91.86
55191;BME280;41070;50.360;18.742;2023-08-01T17:32:27;97438.20;;;18.28;92.14
55191;BME280;41070;50.360;18.742;2023-08-01T17:35:31;97441.06;;;18.29;92.19
55191;BME280;41070;50.360;18.742;2023-08-01T17:38:31;97430.82;;;18.30;92.17
55191;BME280;41070;50.360;18.742;2023-08-01T17:42:01;97437.93;;;18.30;92.30
55191;BME280;41070;50.360;18.742;2023-08-01T17:44:49;97435.82;;;18.35;92.23
55191;BME280;41070;50.360;18.742;2023-08-01T17:50:24;97440.33;;;18.31;92.03
55191;BME280;41070;50.360;18.742;2023-08-01T17:56:15;97444.85;;;18.33;92.10
55191;BME280;41070;50.360;18.742;2023-08-01T17:59:06;97438.08;;;18.31;92.23
55191;BME280;41070;50.360;18.742;2023-08-01T18:04:33;97448.36;;;18.31;92.34
55191;BME280;41070;50.360;18.742;2023-08-01T18:07:42;97453.52;;;18.32;92.18
55191;BME280;41070;50.360;18.742;2023-08-01T18:10:50;97459.52;;;18.27;92.03
55191;BME280;41070;50.360;18.742;2023-08-01T18:13:21;97458.83;;;18.23;92.09
55191;BME280;41070;50.360;18.742;2023-08-01T18:16:30;97460.80;;;18.21;92.15
55191;BME280;41070;50.360;18.742;2023-08-01T18:19:26;97464.44;;;18.21;92.41
55191;BME280;41070;50.360;18.742;2023-08-01T18:22:04;97466.99;;;18.21;92.37
55191;BME280;41070;50.360;18.742;2023-08-01T18:24:56;97466.63;;;18.21;92.47
55191;BME280;41070;50.360;18.742;2023-08-01T18:31:25;97471.53;;;18.15;92.00
55191;BME280;41070;50.360;18.742;2023-08-01T18:33:48;97476.36;;;18.10;92.00
55191;BME280;41070;50.360;18.742;2023-08-01T18:39:31;97473.04;;;18.05;92.30
55191;BME280;41070;50.360;18.742;2023-08-01T18:42:25;97471.83;;;18.04;92.44
55191;BME280;41070;50.360;18.742;2023-08-01T18:45:33;97476.97;;;18.06;92.49
55191;BME280;41070;50.360;18.742;2023-08-01T18:48:08;97470.12;;;18.08;92.55
55191;BME280;41070;50.360;18.742;2023-08-01T18:54:11;97470.61;;;18.10;92.69
55191;BME280;41070;50.360;18.742;2023-08-01T18:57:36;97477.02;;;18.11;92.46